createdAt,value
2022-08-17T00:02:09.873Z,18.00
2022-08-17T00:05:12.675Z,12.70
2022-08-17T00:08:02.351Z,12.43
2022-08-17T00:10:53.946Z,10.95
2022-08-17T00:13:44.360Z,11.23
2022-08-17T00:16:51.953Z,11.18
2022-08-17T00:19:45.289Z,11.30
2022-08-17T00:22:31.531Z,12.10
2022-08-17T00:25:29.336Z,11.48
2022-08-17T00:28:12.504Z,9.73
2022-08-17T00:31:01.363Z,10.85
2022-08-17T00:33:45.531Z,15.40
2022-08-17T00:36:40.414Z,15.55
2022-08-17T00:39:22.180Z,11.38
2022-08-17T00:42:12.402Z,12.63
2022-08-17T00:45:00.500Z,14.20
2022-08-17T00:47:48.390Z,10.15
2022-08-17T00:50:36.516Z,13.27
2022-08-17T00:53:25.364Z,12.40
2022-08-17T00:56:18.512Z,14.90
2022-08-17T00:59:02.320Z,8.47
2022-08-17T01:01:51.519Z,10.73
2022-08-17T01:04:35.331Z,11.02
2022-08-17T01:07:24.548Z,11.55
2022-08-17T01:10:07.335Z,14.80
2022-08-17T01:13:16.451Z,11.60
2022-08-17T01:16:17.336Z,10.32
2022-08-17T01:19:09.450Z,13.80
2022-08-17T01:22:04.406Z,14.07
2022-08-17T01:24:57.441Z,12.25
2022-08-17T01:27:46.344Z,11.68
2022-08-17T01:30:57.160Z,12.65
2022-08-17T01:33:44.362Z,14.20
2022-08-17T01:36:32.590Z,11.98
2022-08-17T01:39:28.394Z,16.23
2022-08-17T01:42:16.477Z,11.13
2022-08-17T01:45:09.348Z,11.63
2022-08-17T01:47:51.584Z,12.43
2022-08-17T01:50:44.337Z,12.25
2022-08-17T01:53:30.581Z,10.95
2022-08-17T01:56:28.336Z,15.43
2022-08-17T01:59:18.567Z,13.48
2022-08-17T02:02:06.424Z,11.18
2022-08-17T02:04:54.632Z,9.43
2022-08-17T02:08:00.529Z,11.65
2022-08-17T02:10:48.532Z,10.95
2022-08-17T02:13:37.357Z,12.65
2022-08-17T02:16:36.834Z,12.38
2022-08-17T02:19:26.485Z,12.60
2022-08-17T02:22:09.593Z,11.93
2022-08-17T02:24:58.960Z,12.73
2022-08-17T02:27:43.490Z,10.63
2022-08-17T02:30:59.148Z,12.02
2022-08-17T02:33:42.593Z,14.40
2022-08-17T02:36:38.457Z,7.82
2022-08-17T02:39:27.641Z,13.50
2022-08-17T02:42:19.377Z,11.90
2022-08-17T02:45:08.455Z,15.02
2022-08-17T02:47:51.058Z,11.35
2022-08-17T02:50:40.377Z,10.25
2022-08-17T02:53:21.507Z,13.63
2022-08-17T02:56:16.438Z,11.93
2022-08-17T02:59:04.540Z,12.85
2022-08-17T03:01:53.387Z,11.07
2022-08-17T03:04:41.639Z,12.57
2022-08-17T03:07:31.470Z,13.90
2022-08-17T03:10:20.609Z,12.48
2022-08-17T03:13:09.447Z,15.52
2022-08-17T03:16:05.363Z,13.38
2022-08-17T03:18:55.421Z,14.43
2022-08-17T03:21:44.553Z,15.70
2022-08-17T03:24:28.819Z,22.38
2022-08-17T03:27:16.502Z,13.20
2022-08-17T03:29:58.452Z,14.50
2022-08-17T03:32:50.398Z,17.85
2022-08-17T03:35:40.468Z,14.50
2022-08-17T03:38:23.269Z,13.05
2022-08-17T03:41:21.455Z,13.45
2022-08-17T03:44:03.593Z,15.90
2022-08-17T03:47:09.417Z,12.38
2022-08-17T03:50:15.295Z,13.48
2022-08-17T03:53:22.400Z,17.48
2022-08-17T03:56:29.954Z,15.85
2022-08-17T03:59:22.222Z,14.02
2022-08-17T04:02:15.604Z,14.97
2022-08-17T04:04:58.456Z,13.18
2022-08-17T04:07:46.558Z,14.30
2022-08-17T04:10:34.435Z,14.70
2022-08-17T04:13:47.417Z,14.20
2022-08-17T04:16:45.428Z,10.25
2022-08-17T04:19:33.642Z,11.10
2022-08-17T04:22:30.189Z,11.77
2022-08-17T04:25:24.421Z,9.98
2022-08-17T04:28:07.672Z,12.40
2022-08-17T04:31:11.534Z,12.18
2022-08-17T04:34:04.530Z,12.45
2022-08-17T04:37:01.420Z,13.27
2022-08-17T04:40:12.183Z,14.23
2022-08-17T04:43:00.825Z,12.40
2022-08-17T04:45:55.486Z,11.55
2022-08-17T04:48:47.514Z,13.48
2022-08-17T04:51:39.569Z,10.05
2022-08-17T04:54:30.394Z,11.95
2022-08-17T04:57:18.650Z,10.02
2022-08-17T04:59:59.501Z,17.48
2022-08-17T05:02:53.789Z,14.98
2022-08-17T05:05:37.420Z,10.70
2022-08-17T05:08:28.662Z,15.50
2022-08-17T05:11:16.448Z,13.68
2022-08-17T05:14:06.628Z,14.98
2022-08-17T05:17:07.350Z,14.20
2022-08-17T05:19:58.605Z,12.48
2022-08-17T05:22:46.462Z,13.18
2022-08-17T05:25:38.438Z,13.80
2022-08-17T05:28:24.243Z,14.32
2022-08-17T05:31:22.502Z,23.63
2022-08-17T05:34:11.469Z,13.32
2022-08-17T05:37:00.445Z,12.75
2022-08-17T05:39:48.739Z,10.90
2022-08-17T05:42:38.501Z,13.80
2022-08-17T05:45:54.324Z,14.45
2022-08-17T05:48:35.479Z,12.35
2022-08-17T05:51:57.453Z,14.38
2022-08-17T05:55:00.455Z,13.15
2022-08-17T05:57:53.516Z,11.73
2022-08-17T06:00:49.576Z,14.57
2022-08-17T06:03:42.652Z,13.70
2022-08-17T06:06:46.473Z,15.32
2022-08-17T06:12:47.449Z,16.52
2022-08-17T06:15:42.616Z,16.42
2022-08-17T06:18:41.462Z,17.75
2022-08-17T06:21:32.107Z,18.85
2022-08-17T06:24:22.525Z,25.15
2022-08-17T06:27:16.696Z,21.50
2022-08-17T06:30:11.560Z,23.38
2022-08-17T06:32:59.514Z,18.77
2022-08-17T06:35:56.529Z,20.58
2022-08-17T06:38:51.028Z,23.08
2022-08-17T06:41:57.499Z,21.75
2022-08-17T06:44:51.590Z,26.08
2022-08-17T06:47:48.532Z,24.52
2022-08-17T06:50:43.676Z,27.30
2022-08-17T06:53:36.521Z,22.55
2022-08-17T06:56:53.884Z,25.80
2022-08-17T06:59:54.924Z,29.45
2022-08-17T07:02:53.053Z,26.30
2022-08-17T07:05:44.512Z,32.15
2022-08-17T07:08:38.081Z,28.80
2022-08-17T07:11:29.487Z,27.95
2022-08-17T07:14:43.665Z,33.30
2022-08-17T07:20:37.486Z,26.00
2022-08-17T07:23:40.506Z,31.77
2022-08-17T07:26:29.563Z,30.90
2022-08-17T07:29:12.493Z,31.55
2022-08-17T07:32:03.752Z,34.75
2022-08-17T07:35:10.712Z,32.00
2022-08-17T07:38:24.988Z,36.15
2022-08-17T07:41:19.553Z,35.97
2022-08-17T07:44:07.719Z,36.10
2022-08-17T07:47:21.510Z,36.67
2022-08-17T07:50:09.597Z,33.42
2022-08-17T07:52:52.528Z,34.92
2022-08-17T07:55:41.585Z,37.08
2022-08-17T07:58:27.734Z,34.63
2022-08-17T08:01:26.687Z,32.47
2022-08-17T08:07:51.674Z,30.98
2022-08-17T08:10:45.372Z,35.03
2022-08-17T08:13:46.516Z,34.63
2022-08-17T08:16:43.535Z,33.70
2022-08-17T08:19:26.513Z,35.85
2022-08-17T08:22:23.621Z,35.78
2022-08-17T08:25:24.971Z,36.95
2022-08-17T08:28:30.511Z,37.05
2022-08-17T08:31:42.228Z,47.85
2022-08-17T08:34:58.973Z,51.60
2022-08-17T08:37:47.572Z,39.00
2022-08-17T08:40:57.591Z,39.03
2022-08-17T08:43:53.429Z,30.13
2022-08-17T08:46:50.536Z,30.45
2022-08-17T08:50:04.802Z,38.30
2022-08-17T08:53:14.534Z,31.67
2022-08-17T08:56:07.711Z,39.53
2022-08-17T08:58:58.548Z,40.72
2022-08-17T09:02:04.544Z,34.53
2022-08-17T09:05:14.242Z,37.25
2022-08-17T09:08:11.532Z,37.40
2022-08-17T09:11:07.684Z,40.08
2022-08-17T09:14:21.778Z,49.55
2022-08-17T09:17:28.591Z,43.55
2022-08-17T09:20:27.375Z,38.38
2022-08-17T09:23:22.572Z,36.72
2022-08-17T09:26:22.868Z,34.70
2022-08-17T09:29:15.567Z,34.50
2022-08-17T09:32:05.817Z,34.95
2022-08-17T09:34:55.560Z,33.08
2022-08-17T09:37:57.762Z,40.65
2022-08-17T09:40:43.541Z,39.45
2022-08-17T09:43:39.751Z,36.00
2022-08-17T09:46:34.563Z,33.35
2022-08-17T09:49:37.775Z,29.10
2022-08-17T09:52:34.589Z,36.78
2022-08-17T09:55:22.769Z,42.55
2022-08-17T09:58:22.551Z,82.13
2022-08-17T10:01:36.878Z,32.05
2022-08-17T10:04:33.589Z,31.48
2022-08-17T10:07:26.812Z,44.10
2022-08-17T10:10:14.764Z,29.80
2022-08-17T10:13:09.790Z,29.80
2022-08-17T10:16:00.575Z,26.58
2022-08-17T10:19:06.555Z,19.42
2022-08-17T10:22:34.985Z,15.90
2022-08-17T10:25:53.979Z,22.38
2022-08-17T10:28:50.597Z,20.95
2022-08-17T10:31:51.632Z,21.25
2022-08-17T10:34:47.582Z,19.55
2022-08-17T10:38:13.570Z,19.88
2022-08-17T10:41:08.760Z,20.75
2022-08-17T10:44:39.054Z,18.17
2022-08-17T10:47:15.423Z,22.40
2022-08-17T10:50:00.668Z,21.27
2022-08-17T10:52:56.798Z,21.77
2022-08-17T10:55:38.582Z,23.33
2022-08-17T10:58:31.025Z,27.58
2022-08-17T11:01:18.685Z,24.60
2022-08-17T11:04:17.598Z,26.83
2022-08-17T11:07:12.657Z,26.15
2022-08-17T11:10:19.707Z,29.05
2022-08-17T11:13:17.618Z,24.85
2022-08-17T11:16:28.593Z,21.60
2022-08-17T11:19:50.598Z,23.52
2022-08-17T11:23:03.836Z,20.02
2022-08-17T11:25:47.664Z,22.73
2022-08-17T11:28:38.826Z,21.05
2022-08-17T11:31:44.683Z,17.55
2022-08-17T11:34:29.952Z,16.85
2022-08-17T11:37:41.609Z,16.95
2022-08-17T11:40:43.193Z,17.27
2022-08-17T11:44:17.616Z,18.40
2022-08-17T11:47:36.397Z,18.40
2022-08-17T11:50:58.616Z,17.88
2022-08-17T11:54:31.695Z,18.85
2022-08-17T11:57:58.637Z,19.40
2022-08-17T12:01:00.828Z,15.70
2022-08-17T12:03:56.143Z,14.32
2022-08-17T12:07:03.646Z,15.85
2022-08-17T12:09:48.886Z,13.73
2022-08-17T12:12:42.631Z,13.00
2022-08-17T12:15:37.833Z,14.02
2022-08-17T12:18:34.648Z,13.30
2022-08-17T12:21:40.189Z,11.98
2022-08-17T12:24:37.667Z,13.25
2022-08-17T12:28:04.167Z,12.70
2022-08-17T12:30:36.665Z,11.30
2022-08-17T12:33:28.911Z,14.20
2022-08-17T12:36:21.649Z,12.38
2022-08-17T12:39:14.058Z,15.30
2022-08-17T12:42:06.624Z,11.25
2022-08-17T12:44:54.776Z,12.85
2022-08-17T12:47:43.738Z,10.15
2022-08-17T12:50:32.242Z,12.20
2022-08-17T12:53:25.648Z,12.90
2022-08-17T12:56:20.375Z,9.82
2022-08-17T12:59:01.753Z,8.55
2022-08-17T13:01:50.419Z,10.50
2022-08-17T13:04:31.718Z,13.38
2022-08-17T13:07:19.902Z,12.20
2022-08-17T13:10:08.649Z,10.35
2022-08-17T13:12:53.441Z,9.45
2022-08-17T13:15:45.725Z,13.73
2022-08-17T13:18:52.661Z,10.10
2022-08-17T13:21:42.690Z,11.27
2022-08-17T13:24:26.839Z,10.95
2022-08-17T13:27:25.657Z,10.75
2022-08-17T13:30:12.993Z,11.13
2022-08-17T13:33:04.112Z,12.43
2022-08-17T13:35:52.258Z,8.68
2022-08-17T13:38:56.771Z,9.75
2022-08-17T13:41:39.493Z,10.88
2022-08-17T13:47:41.314Z,12.85
2022-08-17T13:50:35.660Z,10.75
2022-08-17T13:53:33.662Z,11.38
2022-08-17T13:56:37.055Z,10.95
2022-08-17T13:59:53.026Z,10.68
2022-08-17T14:02:51.679Z,12.20
2022-08-17T14:05:33.939Z,133.10
2022-08-17T14:08:28.686Z,21.10
2022-08-17T14:11:10.815Z,19.00
2022-08-17T14:14:05.657Z,10.63
2022-08-17T14:17:00.735Z,12.65
2022-08-17T14:19:57.678Z,12.65
2022-08-17T14:22:55.672Z,11.18
2022-08-17T14:25:45.773Z,14.90
2022-08-17T14:28:27.840Z,60.03
2022-08-17T14:31:16.905Z,26.60
2022-08-17T14:34:05.749Z,14.63
2022-08-17T14:36:56.570Z,12.85
2022-08-17T14:39:44.744Z,12.63
2022-08-17T14:42:34.910Z,12.32
2022-08-17T14:45:29.592Z,11.48
2022-08-17T14:48:20.883Z,13.63
2022-08-17T14:51:08.714Z,12.68
2022-08-17T14:53:58.948Z,13.82
2022-08-17T14:56:40.711Z,13.85
2022-08-17T14:59:32.904Z,13.98
2022-08-17T15:02:14.712Z,16.42
2022-08-17T15:05:07.881Z,16.80
2022-08-17T15:07:50.950Z,15.33
2022-08-17T15:10:41.033Z,13.70
2022-08-17T15:13:26.781Z,13.68
2022-08-17T15:16:09.773Z,14.18
2022-08-17T15:19:04.770Z,17.35
2022-08-17T15:21:52.931Z,16.17
2022-08-17T15:24:40.691Z,14.75
2022-08-17T15:27:32.569Z,16.25
2022-08-17T15:30:22.700Z,16.85
2022-08-17T15:33:11.864Z,22.42
2022-08-17T15:36:03.815Z,22.98
2022-08-17T15:38:52.950Z,23.45
2022-08-17T15:41:40.720Z,23.27
2022-08-17T15:44:23.939Z,23.25
2022-08-17T15:47:22.787Z,25.55
2022-08-17T15:50:06.327Z,24.42
2022-08-17T15:52:54.744Z,25.88
2022-08-17T15:55:38.618Z,26.27
2022-08-17T15:58:29.992Z,27.80
2022-08-17T16:01:27.858Z,23.25
2022-08-17T16:04:32.187Z,23.65
2022-08-17T16:07:26.471Z,22.90
2022-08-17T16:10:19.008Z,23.65
2022-08-17T16:13:17.907Z,22.52
2022-08-17T16:16:05.747Z,23.08
2022-08-17T16:18:58.412Z,23.20
2022-08-17T16:21:42.677Z,22.70
2022-08-17T16:24:37.726Z,25.67
2022-08-17T16:27:19.676Z,21.80
2022-08-17T16:30:11.416Z,21.58
2022-08-17T16:33:06.886Z,24.63
2022-08-17T16:35:56.770Z,23.42
2022-08-17T16:38:54.529Z,32.47
2022-08-17T16:41:45.050Z,26.48
2022-08-17T16:44:38.755Z,25.33
2022-08-17T16:47:20.763Z,27.58
2022-08-17T16:50:10.735Z,23.20
2022-08-17T16:53:02.871Z,22.95
2022-08-17T16:55:51.747Z,23.70
2022-08-17T16:58:41.020Z,22.98
2022-08-17T17:01:32.762Z,23.85
2022-08-17T17:04:18.031Z,21.55
2022-08-17T17:07:10.860Z,20.90
2022-08-17T17:09:55.571Z,18.75
2022-08-17T17:13:01.669Z,17.95
2022-08-17T17:15:54.324Z,17.92
2022-08-17T17:18:55.849Z,24.42
2022-08-17T17:21:51.794Z,18.55
2022-08-17T17:24:52.766Z,22.42
2022-08-17T17:27:49.969Z,22.42
2022-08-17T17:30:34.136Z,22.23
2022-08-17T17:33:25.763Z,22.55
2022-08-17T17:36:08.979Z,24.73
2022-08-17T17:39:07.768Z,25.10
2022-08-17T17:41:53.909Z,24.55
2022-08-17T17:44:48.776Z,27.20
2022-08-17T17:47:30.698Z,26.35
2022-08-17T17:50:21.789Z,25.95
2022-08-17T17:53:15.908Z,26.15
2022-08-17T17:56:40.526Z,28.10
2022-08-17T17:59:44.363Z,27.05
2022-08-17T18:02:57.798Z,26.08
2022-08-17T18:06:06.853Z,31.30
2022-08-17T18:09:12.057Z,31.73
2022-08-17T18:12:19.792Z,32.15
2022-08-17T18:15:33.920Z,31.20
2022-08-17T18:18:53.853Z,32.05
2022-08-17T18:21:45.925Z,30.35
2022-08-17T18:24:44.796Z,29.45
2022-08-17T18:27:35.632Z,31.35
2022-08-17T18:30:41.867Z,32.85
2022-08-17T18:33:38.829Z,33.55
2022-08-17T18:36:36.292Z,33.50
2022-08-17T18:39:25.857Z,31.98
2022-08-17T18:42:32.927Z,32.28
2022-08-17T18:45:21.811Z,30.83
2022-08-17T18:48:13.043Z,28.58
2022-08-17T18:51:01.885Z,29.05
2022-08-17T18:53:49.968Z,27.25
2022-08-17T18:56:35.888Z,27.13
2022-08-17T18:59:37.057Z,27.05
2022-08-17T19:02:45.179Z,27.83
2022-08-17T19:05:41.971Z,27.05
2022-08-17T19:08:30.889Z,25.83
2022-08-17T19:11:16.059Z,27.73
2022-08-17T19:14:16.909Z,26.42
2022-08-17T19:17:12.002Z,26.02
2022-08-17T19:20:09.915Z,28.48
2022-08-17T19:23:12.013Z,30.48
2022-08-17T19:25:56.907Z,28.33
2022-08-17T19:28:50.991Z,29.02
2022-08-17T19:31:34.806Z,27.55
2022-08-17T19:34:30.338Z,27.20
2022-08-17T19:37:35.844Z,27.52
2022-08-17T19:40:52.419Z,28.00
2022-08-17T19:43:50.537Z,26.67
2022-08-17T19:46:56.315Z,27.58
2022-08-17T19:49:49.975Z,28.55
2022-08-17T19:52:58.845Z,27.23
2022-08-17T19:55:57.036Z,28.70
2022-08-17T19:58:56.819Z,23.25
2022-08-17T20:01:52.079Z,23.80
2022-08-17T20:04:49.809Z,24.08
2022-08-17T20:07:57.847Z,25.15
2022-08-17T20:10:54.815Z,25.50
2022-08-17T20:13:47.896Z,24.88
2022-08-17T20:16:30.443Z,26.43
2022-08-17T20:19:34.949Z,29.27
2022-08-17T20:22:30.988Z,27.15
2022-08-17T20:25:31.838Z,27.52
2022-08-17T20:28:30.452Z,33.13
2022-08-17T20:31:48.877Z,35.70
2022-08-17T20:34:47.853Z,35.22
2022-08-17T20:37:43.176Z,38.42
2022-08-17T20:40:32.859Z,40.97
2022-08-17T20:44:06.230Z,42.72
2022-08-17T20:47:03.897Z,41.58
2022-08-17T20:50:09.895Z,43.03
2022-08-17T20:53:01.065Z,43.63
2022-08-17T20:56:02.875Z,47.75
2022-08-17T20:58:53.804Z,47.92
2022-08-17T21:01:44.922Z,46.90
2022-08-17T21:05:07.160Z,50.90
2022-08-17T21:08:33.922Z,53.00
2022-08-17T21:12:08.891Z,52.38
2022-08-17T21:15:07.075Z,53.65
2022-08-17T21:18:02.882Z,55.70
2022-08-17T21:21:16.842Z,59.78
2022-08-17T21:24:21.856Z,58.13
2022-08-17T21:27:23.859Z,55.83
2022-08-17T21:30:48.020Z,57.67
2022-08-17T21:33:42.858Z,57.80
2022-08-17T21:36:35.327Z,57.67
2022-08-17T21:39:30.593Z,60.92
2022-08-17T21:42:21.458Z,63.97
2022-08-17T21:45:06.890Z,65.15
2022-08-17T21:47:56.042Z,61.70
2022-08-17T21:50:37.932Z,64.95
2022-08-17T21:53:42.104Z,65.05
2022-08-17T21:56:32.883Z,63.90
2022-08-17T21:59:38.883Z,63.75
2022-08-17T22:02:30.031Z,66.15
2022-08-17T22:05:14.972Z,65.90
2022-08-17T22:08:16.778Z,63.17
2022-08-17T22:11:08.902Z,64.25
2022-08-17T22:14:05.286Z,64.57
2022-08-17T22:16:48.901Z,65.35
2022-08-17T22:19:43.880Z,70.78
2022-08-17T22:22:55.912Z,69.88
2022-08-17T22:25:39.900Z,66.47
2022-08-17T22:28:45.699Z,73.93
2022-08-17T22:31:28.891Z,73.53
2022-08-17T22:34:28.875Z,74.18
2022-08-17T22:37:38.057Z,77.47
2022-08-17T22:40:32.979Z,76.78
2022-08-17T22:43:21.199Z,77.13
2022-08-17T22:46:08.879Z,81.23
2022-08-17T22:49:08.962Z,85.18
2022-08-17T22:51:57.070Z,82.85
2022-08-17T22:55:08.287Z,81.20
2022-08-17T22:58:16.528Z,85.40
2022-08-17T23:00:57.897Z,85.03
2022-08-17T23:04:03.088Z,86.40
2022-08-17T23:06:46.915Z,79.85
2022-08-17T23:09:35.828Z,78.50
2022-08-17T23:12:30.915Z,81.30
2022-08-17T23:15:22.039Z,79.38
2022-08-17T23:18:10.907Z,79.63
2022-08-17T23:21:02.048Z,82.30
2022-08-17T23:23:51.907Z,78.82
2022-08-17T23:26:41.067Z,77.97
2022-08-17T23:29:29.924Z,83.47
2022-08-17T23:32:22.203Z,82.38
2022-08-17T23:35:05.920Z,84.32
2022-08-17T23:37:56.168Z,79.93
2022-08-17T23:40:39.361Z,82.63
2022-08-17T23:43:29.813Z,86.38
2022-08-17T23:46:18.932Z,92.32
2022-08-17T23:49:01.102Z,92.88
2022-08-17T23:51:50.061Z,97.00
2022-08-17T23:54:47.063Z,99.85
2022-08-17T23:57:41.990Z,102.43
